createdAt,value
2023-05-05T00:02:11.348Z,11.99
2023-05-05T00:04:38.886Z,11.93
2023-05-05T00:07:06.316Z,11.94
2023-05-05T00:09:33.799Z,11.97
2023-05-05T00:12:01.343Z,11.95
2023-05-05T00:14:28.786Z,11.86
2023-05-05T00:16:56.339Z,11.90
2023-05-05T00:19:25.231Z,11.94
2023-05-05T00:21:53.028Z,11.95
2023-05-05T00:24:20.497Z,11.85
2023-05-05T00:26:47.938Z,11.85
2023-05-05T00:29:15.558Z,11.89
2023-05-05T00:31:43.080Z,11.86
2023-05-05T00:34:11.015Z,11.75
2023-05-05T00:36:39.877Z,11.69
2023-05-05T00:39:07.431Z,11.59
2023-05-05T00:41:34.921Z,10.55
2023-05-05T00:44:02.448Z,11.41
2023-05-05T00:46:32.696Z,11.38
2023-05-05T00:49:01.259Z,11.69
2023-05-05T00:51:29.571Z,11.53
2023-05-05T00:53:58.410Z,11.61
2023-05-05T00:58:54.992Z,11.61
2023-05-05T01:01:22.943Z,11.62
2023-05-05T01:03:50.492Z,11.58
2023-05-05T01:06:38.335Z,11.61
2023-05-05T01:09:17.548Z,11.61
2023-05-05T01:11:52.384Z,11.58
2023-05-05T01:14:23.904Z,11.59
2023-05-05T01:16:58.220Z,11.56
2023-05-05T01:19:59.251Z,11.51
2023-05-05T01:22:33.942Z,11.40
2023-05-05T01:25:40.236Z,11.39
2023-05-05T01:28:18.180Z,11.40
2023-05-05T01:31:01.511Z,11.35
2023-05-05T01:33:36.844Z,11.03
2023-05-05T01:36:08.507Z,11.21
2023-05-05T01:38:41.715Z,11.34
2023-05-05T01:41:13.955Z,11.07
2023-05-05T01:43:45.695Z,11.29
2023-05-05T01:46:14.546Z,11.10
2023-05-05T01:48:45.082Z,11.20
2023-05-05T01:51:13.593Z,11.20
2023-05-05T01:53:41.404Z,11.00
2023-05-05T01:56:10.443Z,11.21
2023-05-05T01:58:38.881Z,10.91
2023-05-05T02:01:07.161Z,11.18
2023-05-05T02:03:37.121Z,11.11
2023-05-05T02:06:08.304Z,10.18
2023-05-05T02:08:37.827Z,10.97
2023-05-05T02:11:06.202Z,11.09
2023-05-05T02:13:34.041Z,11.08
2023-05-05T02:16:03.862Z,11.13
2023-05-05T02:18:35.688Z,11.16
2023-05-05T02:21:03.633Z,11.12
2023-05-05T02:23:32.581Z,11.15
2023-05-05T02:26:05.733Z,11.08
2023-05-05T02:28:40.827Z,11.00
2023-05-05T02:31:10.482Z,11.04
2023-05-05T02:33:39.319Z,11.05
2023-05-05T02:36:12.635Z,10.53
2023-05-05T02:38:44.385Z,10.51
2023-05-05T02:41:17.670Z,10.89
2023-05-05T02:43:47.097Z,10.92
2023-05-05T02:46:14.565Z,10.50
2023-05-05T02:48:42.286Z,10.88
2023-05-05T02:51:09.773Z,10.98
2023-05-05T02:53:37.493Z,10.94
2023-05-05T02:56:17.205Z,11.05
2023-05-05T02:58:52.759Z,10.96
2023-05-05T03:01:30.295Z,10.99
2023-05-05T03:04:05.990Z,11.02
2023-05-05T03:06:40.079Z,10.67
2023-05-05T03:09:11.023Z,10.68
2023-05-05T03:11:44.940Z,10.83
2023-05-05T03:14:16.813Z,10.77
2023-05-05T03:16:45.270Z,10.41
2023-05-05T03:19:14.424Z,10.67
2023-05-05T03:21:42.633Z,10.28
2023-05-05T03:24:15.237Z,10.39
2023-05-05T03:26:45.908Z,10.57
2023-05-05T03:29:13.939Z,10.33
2023-05-05T03:31:41.792Z,10.67
2023-05-05T03:34:09.698Z,10.73
2023-05-05T03:36:37.393Z,10.68
2023-05-05T03:39:05.004Z,10.58
2023-05-05T03:41:32.465Z,10.62
2023-05-05T03:44:01.349Z,10.68
2023-05-05T03:46:28.880Z,10.67
2023-05-05T03:48:56.957Z,10.65
2023-05-05T03:51:25.209Z,10.67
2023-05-05T03:53:52.677Z,10.65
2023-05-05T03:56:20.289Z,10.72
2023-05-05T03:58:47.826Z,10.59
2023-05-05T04:01:16.618Z,10.54
2023-05-05T04:03:44.164Z,10.39
2023-05-05T04:06:11.636Z,10.56
2023-05-05T04:08:39.074Z,9.88
2023-05-05T04:11:06.650Z,10.54
2023-05-05T04:13:34.092Z,10.54
2023-05-05T04:16:01.674Z,10.60
2023-05-05T04:18:31.154Z,10.55
2023-05-05T04:20:58.609Z,10.59
2023-05-05T04:23:26.163Z,10.60
2023-05-05T04:25:53.631Z,10.56
2023-05-05T04:28:21.972Z,10.30
2023-05-05T04:30:49.497Z,10.46
2023-05-05T04:33:16.932Z,10.19
2023-05-05T04:35:45.757Z,10.51
2023-05-05T04:38:13.192Z,10.15
2023-05-05T04:40:41.173Z,10.15
2023-05-05T04:43:08.617Z,10.09
2023-05-05T04:45:36.078Z,10.25
2023-05-05T04:48:05.044Z,10.50
2023-05-05T04:50:32.653Z,10.37
2023-05-05T04:53:01.497Z,10.59
2023-05-05T04:55:29.330Z,10.51
2023-05-05T04:57:56.801Z,10.67
2023-05-05T05:00:24.389Z,10.95
2023-05-05T05:02:52.422Z,11.31
2023-05-05T05:05:20.063Z,11.58
2023-05-05T05:07:47.520Z,11.30
2023-05-05T05:10:17.085Z,11.52
2023-05-05T05:12:44.549Z,11.13
2023-05-05T05:15:14.239Z,10.73
2023-05-05T05:17:41.726Z,10.88
2023-05-05T05:20:10.092Z,10.84
2023-05-05T05:22:38.837Z,10.89
2023-05-05T05:25:06.494Z,10.66
2023-05-05T05:27:35.332Z,11.14
2023-05-05T05:30:02.975Z,11.39
2023-05-05T05:32:30.640Z,10.97
2023-05-05T05:34:58.140Z,11.70
2023-05-05T05:37:29.129Z,11.37
2023-05-05T05:39:56.781Z,11.91
2023-05-05T05:42:24.212Z,12.88
2023-05-05T05:44:53.114Z,12.68
2023-05-05T05:47:20.610Z,12.51
2023-05-05T05:49:48.032Z,12.96
2023-05-05T05:52:15.482Z,13.15
2023-05-05T05:54:42.945Z,13.31
2023-05-05T05:57:10.471Z,13.26
2023-05-05T05:59:37.964Z,13.47
2023-05-05T06:02:07.112Z,13.03
2023-05-05T06:04:34.661Z,12.85
2023-05-05T06:07:02.210Z,12.90
2023-05-05T06:09:29.690Z,12.64
2023-05-05T06:11:57.142Z,12.84
2023-05-05T06:14:24.642Z,12.68
2023-05-05T06:16:52.686Z,12.88
2023-05-05T06:19:21.532Z,12.85
2023-05-05T06:21:49.067Z,13.07
2023-05-05T06:24:16.671Z,13.17
2023-05-05T06:26:44.157Z,13.21
2023-05-05T06:29:12.435Z,13.11
2023-05-05T06:31:39.906Z,13.32
2023-05-05T06:34:07.519Z,13.41
2023-05-05T06:36:36.451Z,13.50
2023-05-05T06:39:03.988Z,13.72
2023-05-05T06:41:31.717Z,13.81
2023-05-05T06:43:59.166Z,13.87
2023-05-05T06:46:27.150Z,13.75
2023-05-05T06:48:54.685Z,13.83
2023-05-05T06:51:22.653Z,13.61
2023-05-05T06:53:51.496Z,14.18
2023-05-05T06:56:19.302Z,14.20
2023-05-05T06:58:46.799Z,14.38
2023-05-05T07:01:14.526Z,14.26
2023-05-05T07:03:42.056Z,14.53
2023-05-05T07:06:09.655Z,15.05
2023-05-05T07:08:37.175Z,14.81
2023-05-05T07:11:06.031Z,14.43
2023-05-05T07:13:33.517Z,14.64
2023-05-05T07:16:01.185Z,15.19
2023-05-05T07:18:28.689Z,14.62
2023-05-05T07:20:56.110Z,14.52
2023-05-05T07:23:23.560Z,15.28
2023-05-05T07:25:51.133Z,14.87
2023-05-05T07:28:20.065Z,14.81
2023-05-05T07:30:47.529Z,14.89
2023-05-05T07:33:15.738Z,14.95
2023-05-05T07:35:43.183Z,15.18
2023-05-05T07:38:11.081Z,15.20
2023-05-05T07:40:38.603Z,15.68
2023-05-05T07:43:06.124Z,15.58
2023-05-05T07:45:34.999Z,15.76
2023-05-05T07:48:02.613Z,15.41
2023-05-05T07:50:30.240Z,16.30
2023-05-05T07:53:10.671Z,16.22
2023-05-05T07:55:41.766Z,16.52
2023-05-05T07:58:10.709Z,16.60
2023-05-05T08:00:39.652Z,16.28
2023-05-05T08:03:09.725Z,16.13
2023-05-05T08:05:39.069Z,16.60
2023-05-05T08:08:06.932Z,16.86
2023-05-05T08:10:34.377Z,16.16
2023-05-05T08:13:01.992Z,16.75
2023-05-05T08:15:29.595Z,17.23
2023-05-05T08:17:58.437Z,17.55
2023-05-05T08:20:29.413Z,16.68
2023-05-05T08:22:56.952Z,17.40
2023-05-05T08:25:26.747Z,16.99
2023-05-05T08:27:54.551Z,17.25
2023-05-05T08:30:22.269Z,16.71
2023-05-05T08:32:49.745Z,17.48
2023-05-05T08:35:18.803Z,16.98
2023-05-05T08:37:46.341Z,17.83
2023-05-05T08:40:14.970Z,17.33
2023-05-05T08:42:42.631Z,17.82
2023-05-05T08:45:11.501Z,18.06
2023-05-05T08:47:40.293Z,18.05
2023-05-05T08:50:11.156Z,18.29
2023-05-05T08:52:41.879Z,18.15
2023-05-05T08:55:16.210Z,18.73
2023-05-05T08:57:50.351Z,18.84
2023-05-05T09:00:19.591Z,18.19
2023-05-05T09:02:47.780Z,18.60
2023-05-05T09:05:15.761Z,18.34
2023-05-05T09:07:44.810Z,18.18
2023-05-05T09:10:13.114Z,18.57
2023-05-05T09:12:41.388Z,18.53
2023-05-05T09:15:10.129Z,18.77
2023-05-05T09:17:38.051Z,18.83
2023-05-05T09:20:07.687Z,18.09
2023-05-05T09:22:37.047Z,19.03
2023-05-05T09:25:07.565Z,19.48
2023-05-05T09:27:40.683Z,19.83
2023-05-05T09:30:09.945Z,19.67
2023-05-05T09:32:55.809Z,19.61
2023-05-05T09:35:24.349Z,19.29
2023-05-05T09:37:52.013Z,19.06
2023-05-05T09:40:22.131Z,19.54
2023-05-05T09:42:49.789Z,19.04
2023-05-05T09:45:27.984Z,19.60
2023-05-05T09:47:59.602Z,19.39
2023-05-05T09:50:30.133Z,19.28
2023-05-05T09:52:58.488Z,19.50
2023-05-05T09:55:27.344Z,19.43
2023-05-05T09:57:55.061Z,19.44
2023-05-05T10:00:22.934Z,19.50
2023-05-05T10:02:50.446Z,20.04
2023-05-05T10:05:19.397Z,20.02
2023-05-05T10:07:48.764Z,20.09
2023-05-05T10:10:18.387Z,20.34
2023-05-05T10:12:49.313Z,20.60
2023-05-05T10:15:17.473Z,20.02
2023-05-05T10:17:58.373Z,19.82
2023-05-05T10:20:34.176Z,20.16
2023-05-05T10:23:06.515Z,20.37
2023-05-05T10:25:41.224Z,20.55
2023-05-05T10:28:16.819Z,20.83
2023-05-05T10:30:46.959Z,21.09
2023-05-05T10:33:31.557Z,20.99
2023-05-05T10:36:03.104Z,20.93
2023-05-05T10:38:32.344Z,20.81
2023-05-05T10:41:01.157Z,20.72
2023-05-05T10:43:31.893Z,20.17
2023-05-05T10:46:00.504Z,20.80
2023-05-05T10:48:35.491Z,20.77
2023-05-05T10:51:27.333Z,20.60
2023-05-05T10:54:11.370Z,20.75
2023-05-05T10:56:41.738Z,21.33
2023-05-05T10:59:44.383Z,21.23
2023-05-05T11:02:22.792Z,21.32
2023-05-05T11:05:08.162Z,21.37
2023-05-05T11:07:35.853Z,21.05
2023-05-05T11:10:05.048Z,20.51
2023-05-05T11:12:35.503Z,20.81
2023-05-05T11:15:38.279Z,20.68
2023-05-05T11:18:08.229Z,20.48
2023-05-05T11:21:03.491Z,20.46
2023-05-05T11:23:31.623Z,20.44
2023-05-05T11:25:59.196Z,20.29
2023-05-05T11:28:29.921Z,20.31
2023-05-05T11:31:20.894Z,20.14
2023-05-05T11:33:48.913Z,20.20
2023-05-05T11:36:17.783Z,20.24
2023-05-05T11:39:04.818Z,20.12
2023-05-05T11:41:46.262Z,19.99
2023-05-05T11:44:15.139Z,19.88
2023-05-05T11:47:22.739Z,19.83
2023-05-05T11:49:50.727Z,19.92
2023-05-05T11:52:18.327Z,19.88
2023-05-05T11:54:48.529Z,19.93
2023-05-05T11:57:19.266Z,20.06
2023-05-05T11:59:52.117Z,19.99
2023-05-05T12:02:22.342Z,20.23
2023-05-05T12:04:50.480Z,19.89
2023-05-05T12:07:19.131Z,20.07
2023-05-05T12:09:48.164Z,19.95
2023-05-05T12:12:16.368Z,20.11
2023-05-05T12:14:51.970Z,20.13
2023-05-05T12:17:22.428Z,20.31
2023-05-05T12:19:53.435Z,20.17
2023-05-05T12:22:23.282Z,20.17
2023-05-05T12:24:55.758Z,20.09
2023-05-05T12:27:23.959Z,20.41
2023-05-05T12:29:51.622Z,20.29
2023-05-05T12:32:22.108Z,20.11
2023-05-05T12:34:53.727Z,20.14
2023-05-05T12:37:22.075Z,20.29
2023-05-05T12:39:49.780Z,20.28
2023-05-05T12:42:17.954Z,20.06
2023-05-05T12:44:46.629Z,20.03
2023-05-05T12:47:14.745Z,20.15
2023-05-05T12:49:51.484Z,20.03
2023-05-05T12:52:20.709Z,19.99
2023-05-05T12:54:56.060Z,20.07
2023-05-05T12:57:24.252Z,19.88
2023-05-05T12:59:52.726Z,19.87
2023-05-05T13:02:21.465Z,19.85
2023-05-05T13:04:52.059Z,20.19
2023-05-05T13:07:20.989Z,20.28
2023-05-05T13:09:49.766Z,20.04
2023-05-05T13:12:19.314Z,20.21
2023-05-05T13:14:47.484Z,20.36
2023-05-05T13:17:15.400Z,20.20
2023-05-05T13:19:45.906Z,20.06
2023-05-05T13:22:15.115Z,19.85
2023-05-05T13:24:51.618Z,19.75
2023-05-05T13:27:20.032Z,19.92
2023-05-05T13:29:47.916Z,19.76
2023-05-05T13:32:15.485Z,19.71
2023-05-05T13:34:43.976Z,19.62
2023-05-05T13:37:11.528Z,19.46
2023-05-05T13:39:40.566Z,19.36
2023-05-05T13:42:08.026Z,19.27
2023-05-05T13:44:37.865Z,19.45
2023-05-05T13:47:05.669Z,19.43
2023-05-05T13:49:33.229Z,19.41
2023-05-05T13:52:02.751Z,19.19
2023-05-05T13:54:30.585Z,19.23
2023-05-05T13:56:59.951Z,19.17
2023-05-05T13:59:27.549Z,19.15
2023-05-05T14:01:55.096Z,19.01
2023-05-05T14:04:22.721Z,18.77
2023-05-05T14:06:50.388Z,18.67
2023-05-05T14:09:17.849Z,18.37
2023-05-05T14:11:47.429Z,18.18
2023-05-05T14:14:16.313Z,18.27
2023-05-05T14:16:43.808Z,18.29
2023-05-05T14:19:11.263Z,18.53
2023-05-05T14:21:38.775Z,18.29
2023-05-05T14:24:06.855Z,18.12
2023-05-05T14:26:34.200Z,18.03
2023-05-05T14:29:01.666Z,17.93
2023-05-05T14:31:30.533Z,17.89
2023-05-05T14:33:58.016Z,17.78
2023-05-05T14:36:26.731Z,17.54
2023-05-05T14:38:54.283Z,17.69
2023-05-05T14:41:21.835Z,18.15
2023-05-05T14:43:49.335Z,18.34
2023-05-05T14:46:16.960Z,18.37
2023-05-05T14:48:47.153Z,18.08
2023-05-05T14:51:15.126Z,18.41
2023-05-05T14:53:43.289Z,18.37
2023-05-05T14:56:10.638Z,18.45
2023-05-05T14:58:38.350Z,18.58
2023-05-05T15:01:05.875Z,18.66
2023-05-05T15:03:33.573Z,18.69
2023-05-05T15:06:02.466Z,18.65
2023-05-05T15:08:29.973Z,18.70
2023-05-05T15:10:57.471Z,18.77
2023-05-05T15:13:25.027Z,18.87
2023-05-05T15:15:52.566Z,18.88
2023-05-05T15:18:20.076Z,18.82
2023-05-05T15:20:47.524Z,18.72
2023-05-05T15:23:16.470Z,18.67
2023-05-05T15:25:44.041Z,18.52
2023-05-05T15:28:11.513Z,18.39
2023-05-05T15:30:38.993Z,18.34
2023-05-05T15:33:06.565Z,18.23
2023-05-05T15:35:34.058Z,18.25
2023-05-05T15:38:04.883Z,18.28
2023-05-05T15:40:33.789Z,18.15
2023-05-05T15:43:01.357Z,18.21
2023-05-05T15:45:28.822Z,18.18
2023-05-05T15:47:56.353Z,17.99
2023-05-05T15:50:23.905Z,17.23
2023-05-05T15:52:51.526Z,17.65
2023-05-05T15:55:19.013Z,17.71
2023-05-05T15:57:47.839Z,17.74
2023-05-05T16:00:16.080Z,17.48
2023-05-05T16:02:43.601Z,16.99
2023-05-05T16:05:12.216Z,16.97
2023-05-05T16:07:39.908Z,16.88
2023-05-05T16:10:09.811Z,16.95
2023-05-05T16:12:38.318Z,17.38
2023-05-05T16:15:10.520Z,17.12
2023-05-05T16:17:38.618Z,16.86
2023-05-05T16:20:07.086Z,17.09
2023-05-05T16:22:34.560Z,17.19
2023-05-05T16:25:02.060Z,17.49
2023-05-05T16:27:29.565Z,16.92
2023-05-05T16:29:59.527Z,17.13
2023-05-05T16:32:28.675Z,17.01
2023-05-05T16:34:56.181Z,17.05
2023-05-05T16:37:23.872Z,17.48
2023-05-05T16:39:51.415Z,17.64
2023-05-05T16:42:19.149Z,17.37
2023-05-05T16:44:46.664Z,17.36
2023-05-05T16:47:14.201Z,17.40
2023-05-05T16:49:43.028Z,17.12
2023-05-05T16:52:13.223Z,16.97
2023-05-05T16:54:41.504Z,17.15
2023-05-05T16:57:09.044Z,17.29
2023-05-05T16:59:36.938Z,17.10
2023-05-05T17:02:04.438Z,16.98
2023-05-05T17:04:34.728Z,16.71
2023-05-05T17:07:03.607Z,16.60
2023-05-05T17:09:31.082Z,16.35
2023-05-05T17:11:58.558Z,16.49
2023-05-05T17:14:27.194Z,16.81
2023-05-05T17:16:55.243Z,16.88
2023-05-05T17:19:22.758Z,17.17
2023-05-05T17:21:50.238Z,17.27
2023-05-05T17:24:19.017Z,17.16
2023-05-05T17:26:46.702Z,16.68
2023-05-05T17:29:15.160Z,16.71
2023-05-05T17:31:42.715Z,16.89
2023-05-05T17:34:13.197Z,17.19
2023-05-05T17:36:45.819Z,17.18
2023-05-05T17:39:13.612Z,17.20
2023-05-05T17:41:42.778Z,16.68
2023-05-05T17:44:10.351Z,16.55
2023-05-05T17:46:38.169Z,16.63
2023-05-05T17:49:05.729Z,16.59
2023-05-05T17:51:33.262Z,16.79
2023-05-05T17:54:00.698Z,16.85
2023-05-05T17:56:28.173Z,16.87
2023-05-05T17:58:56.999Z,16.90
2023-05-05T18:01:25.665Z,16.64
2023-05-05T18:04:01.388Z,16.95
2023-05-05T18:06:29.278Z,16.78
2023-05-05T18:08:57.302Z,16.60
2023-05-05T18:11:27.511Z,16.89
2023-05-05T18:13:57.010Z,16.73
2023-05-05T18:16:24.551Z,16.82
2023-05-05T18:18:52.082Z,16.81
2023-05-05T18:21:19.557Z,16.45
2023-05-05T18:23:47.044Z,16.29
2023-05-05T18:26:14.529Z,16.40
2023-05-05T18:28:42.021Z,16.38
2023-05-05T18:31:10.877Z,16.71
2023-05-05T18:33:38.444Z,16.75
2023-05-05T18:36:06.488Z,16.73
2023-05-05T18:38:33.940Z,16.75
2023-05-05T18:41:01.560Z,16.73
2023-05-05T18:43:29.018Z,16.40
2023-05-05T18:45:56.527Z,16.60
2023-05-05T18:48:26.103Z,16.69
2023-05-05T18:50:53.569Z,16.68
2023-05-05T18:53:21.051Z,16.54
2023-05-05T18:55:49.221Z,16.60
2023-05-05T18:58:16.934Z,16.55
2023-05-05T19:00:44.764Z,16.55
2023-05-05T19:03:12.487Z,15.93
2023-05-05T19:05:41.963Z,15.82
2023-05-05T19:08:09.491Z,15.77
2023-05-05T19:10:37.388Z,16.01
2023-05-05T19:13:04.986Z,16.12
2023-05-05T19:15:32.665Z,15.86
2023-05-05T19:18:00.585Z,15.68
2023-05-05T19:20:30.730Z,15.13
2023-05-05T19:23:03.722Z,15.42
2023-05-05T19:25:31.254Z,14.81
2023-05-05T19:27:59.310Z,14.98
2023-05-05T19:30:26.882Z,14.70
2023-05-05T19:32:54.430Z,14.71
2023-05-05T19:35:22.289Z,14.71
2023-05-05T19:37:49.721Z,14.44
2023-05-05T19:40:18.537Z,14.43
2023-05-05T19:42:46.003Z,14.61
2023-05-05T19:45:13.471Z,14.23
2023-05-05T19:47:40.958Z,14.26
2023-05-05T19:50:09.133Z,14.20
2023-05-05T19:52:38.273Z,14.12
2023-05-05T19:55:06.648Z,14.20
2023-05-05T19:57:35.570Z,14.03
2023-05-05T20:00:04.883Z,14.04
2023-05-05T20:02:33.748Z,14.06
2023-05-05T20:05:03.055Z,14.02
2023-05-05T20:07:30.519Z,14.01
2023-05-05T20:09:58.708Z,14.01
2023-05-05T20:12:26.471Z,13.97
2023-05-05T20:14:55.401Z,14.15
2023-05-05T20:17:23.678Z,14.11
2023-05-05T20:19:51.009Z,13.73
2023-05-05T20:22:18.816Z,13.79
2023-05-05T20:24:46.313Z,13.87
2023-05-05T20:27:13.751Z,13.90
2023-05-05T20:29:41.184Z,13.83
2023-05-05T20:32:10.015Z,14.15
2023-05-05T20:34:38.730Z,13.87
2023-05-05T20:37:06.223Z,14.40
2023-05-05T20:39:33.720Z,14.08
2023-05-05T20:42:01.157Z,13.46
2023-05-05T20:44:28.578Z,14.31
2023-05-05T20:46:56.105Z,14.26
2023-05-05T20:49:24.970Z,14.44
2023-05-05T20:51:52.460Z,15.03
2023-05-05T20:54:19.907Z,15.07
2023-05-05T20:56:47.338Z,14.83
2023-05-05T20:59:14.849Z,15.05
2023-05-05T21:01:42.415Z,15.16
2023-05-05T21:04:09.924Z,14.53
2023-05-05T21:06:38.756Z,15.16
2023-05-05T21:09:06.549Z,15.30
2023-05-05T21:11:34.116Z,15.36
2023-05-05T21:14:01.557Z,15.30
2023-05-05T21:16:29.007Z,15.13
2023-05-05T21:18:56.459Z,15.26
2023-05-05T21:21:24.567Z,15.18
2023-05-05T21:23:55.071Z,15.14
2023-05-05T21:26:22.585Z,15.33
2023-05-05T21:28:50.047Z,15.36
2023-05-05T21:31:21.912Z,14.68
2023-05-05T21:33:49.599Z,15.26
2023-05-05T21:36:18.867Z,15.33
2023-05-05T21:38:46.312Z,15.34
2023-05-05T21:41:15.087Z,15.33
2023-05-05T21:43:42.523Z,15.14
2023-05-05T21:46:10.032Z,14.32
2023-05-05T21:48:38.703Z,15.12
2023-05-05T21:51:06.618Z,15.10
2023-05-05T21:53:34.145Z,15.17
2023-05-05T21:56:02.278Z,15.24
2023-05-05T21:58:31.071Z,15.23
2023-05-05T22:00:58.500Z,15.28
2023-05-05T22:03:26.273Z,15.15
2023-05-05T22:05:53.845Z,15.07
2023-05-05T22:08:21.402Z,14.54
2023-05-05T22:10:48.836Z,15.05
2023-05-05T22:13:16.398Z,14.84
2023-05-05T22:15:47.252Z,15.10
2023-05-05T22:18:15.282Z,15.10
2023-05-05T22:20:43.192Z,15.08
2023-05-05T22:23:10.707Z,14.69
2023-05-05T22:25:38.435Z,14.18
2023-05-05T22:28:05.919Z,14.03
2023-05-05T22:30:33.549Z,14.24
2023-05-05T22:33:02.472Z,14.93
2023-05-05T22:35:30.062Z,14.77
2023-05-05T22:37:57.827Z,14.90
2023-05-05T22:40:25.343Z,14.63
2023-05-05T22:42:52.896Z,14.96
2023-05-05T22:45:20.769Z,14.98
2023-05-05T22:47:48.229Z,14.63
2023-05-05T22:50:17.149Z,14.46
2023-05-05T22:52:44.610Z,14.87
2023-05-05T22:55:13.902Z,14.78
2023-05-05T22:57:42.152Z,14.77
2023-05-05T23:00:10.953Z,14.78
2023-05-05T23:02:38.672Z,14.86
2023-05-05T23:05:07.182Z,14.78
2023-05-05T23:07:36.059Z,14.58
2023-05-05T23:10:03.613Z,14.34
2023-05-05T23:12:31.225Z,14.23
2023-05-05T23:14:58.681Z,14.49
2023-05-05T23:17:26.189Z,14.11
2023-05-05T23:19:53.683Z,14.12
2023-05-05T23:22:21.138Z,14.33
2023-05-05T23:24:49.906Z,14.32
2023-05-05T23:27:17.358Z,14.54
2023-05-05T23:29:44.815Z,14.18
2023-05-05T23:32:12.244Z,14.39
2023-05-05T23:34:39.719Z,14.37
2023-05-05T23:37:07.204Z,14.09
2023-05-05T23:39:34.935Z,14.19
2023-05-05T23:42:03.725Z,14.07
2023-05-05T23:44:31.176Z,14.29
2023-05-05T23:46:58.609Z,13.97
2023-05-05T23:49:26.364Z,14.07
2023-05-05T23:51:53.852Z,14.12
2023-05-05T23:54:21.335Z,14.07
2023-05-05T23:56:48.764Z,14.16
2023-05-05T23:59:17.767Z,14.04
